createdAt,value
2022-08-05T00:00:46.283Z,2.97
2022-08-05T00:03:15.850Z,3.58
2022-08-05T00:06:05.647Z,3.20
2022-08-05T00:08:34.701Z,3.58
2022-08-05T00:11:04.202Z,3.58
2022-08-05T00:13:38.775Z,3.40
2022-08-05T00:16:08.967Z,3.30
2022-08-05T00:18:37.855Z,3.58
2022-08-05T00:23:46.915Z,3.30
2022-08-05T00:26:20.657Z,3.28
2022-08-05T00:28:47.246Z,3.38
2022-08-05T00:31:15.982Z,3.22
2022-08-05T00:34:54.216Z,3.83
2022-08-05T00:37:11.459Z,3.20
2022-08-05T00:39:15.828Z,3.35
2022-08-05T00:41:55.337Z,2.90
2022-08-05T00:44:30.874Z,3.22
2022-08-05T00:47:01.891Z,3.20
2022-08-05T00:49:32.655Z,3.20
2022-08-05T00:51:59.628Z,4.22
2022-08-05T00:54:28.210Z,3.58
2022-08-05T00:56:57.147Z,3.58
2022-08-05T00:59:23.809Z,3.58
2022-08-05T01:01:50.918Z,3.40
2022-08-05T01:04:20.205Z,3.40
2022-08-05T01:06:53.443Z,3.92
2022-08-05T01:09:21.772Z,3.10
2022-08-05T01:11:52.061Z,3.20
2022-08-05T01:14:35.249Z,3.33
2022-08-05T01:17:05.510Z,3.55
2022-08-05T01:20:01.639Z,3.88
2022-08-05T01:22:57.684Z,3.40
2022-08-05T01:25:53.811Z,3.40
2022-08-05T01:28:37.461Z,3.67
2022-08-05T01:31:18.730Z,3.78
2022-08-05T01:36:28.365Z,3.63
2022-08-05T01:38:56.457Z,3.58
2022-08-05T01:41:29.529Z,3.40
2022-08-05T01:43:57.217Z,3.10
2022-08-05T01:46:41.369Z,3.72
2022-08-05T01:49:23.605Z,3.25
2022-08-05T01:51:55.151Z,3.33
2022-08-05T01:54:27.354Z,3.72
2022-08-05T01:58:12.246Z,3.83
2022-08-05T01:59:47.262Z,3.85
2022-08-05T02:02:16.004Z,3.85
2022-08-05T02:07:21.848Z,3.85
2022-08-05T02:09:50.055Z,3.47
2022-08-05T02:12:32.993Z,3.75
2022-08-05T02:15:03.439Z,3.83
2022-08-05T02:18:30.718Z,3.75
2022-08-05T02:20:26.663Z,3.13
2022-08-05T02:23:00.035Z,4.40
2022-08-05T02:25:33.437Z,3.55
2022-08-05T02:28:16.369Z,3.70
2022-08-05T02:31:01.343Z,3.53
2022-08-05T02:33:38.322Z,3.63
2022-08-05T02:36:09.635Z,3.97
2022-08-05T02:38:43.348Z,3.80
2022-08-05T02:41:17.331Z,3.50
2022-08-05T02:44:06.416Z,3.60
2022-08-05T02:46:35.963Z,3.67
2022-08-05T02:49:21.987Z,4.65
2022-08-05T02:52:02.784Z,4.15
2022-08-05T02:54:35.668Z,3.90
2022-08-05T02:58:10.668Z,3.05
2022-08-05T03:00:13.392Z,3.28
2022-08-05T03:05:11.682Z,3.20
2022-08-05T03:08:00.486Z,3.20
2022-08-05T03:10:27.775Z,3.58
2022-08-05T03:12:54.436Z,3.92
2022-08-05T03:15:23.552Z,3.40
2022-08-05T03:17:54.064Z,3.13
2022-08-05T03:20:23.660Z,4.10
2022-08-05T03:22:51.543Z,3.42
2022-08-05T03:25:32.834Z,3.97
2022-08-05T03:28:08.954Z,3.40
2022-08-05T03:30:38.271Z,3.38
2022-08-05T03:33:08.296Z,3.85
2022-08-05T03:35:40.841Z,3.83
2022-08-05T03:38:12.243Z,4.07
2022-08-05T03:40:45.052Z,4.55
2022-08-05T03:43:58.743Z,3.75
2022-08-05T03:46:02.505Z,3.50
2022-08-05T03:48:30.074Z,3.20
2022-08-05T03:52:48.657Z,3.90
2022-08-05T03:55:53.147Z,3.45
2022-08-05T03:57:20.777Z,4.03
2022-08-05T03:59:54.703Z,3.75
2022-08-05T04:02:37.478Z,3.72
2022-08-05T04:05:09.697Z,3.85
2022-08-05T04:07:53.097Z,3.63
2022-08-05T04:10:33.237Z,3.25
2022-08-05T04:13:05.403Z,3.40
2022-08-05T04:15:33.200Z,3.55
2022-08-05T04:18:07.067Z,3.40
2022-08-05T04:20:34.599Z,4.38
2022-08-05T04:23:01.424Z,4.35
2022-08-05T04:25:56.871Z,4.13
2022-08-05T04:28:14.977Z,3.97
2022-08-05T04:30:41.711Z,4.35
2022-08-05T04:33:09.580Z,4.22
2022-08-05T04:36:10.726Z,4.38
2022-08-05T04:38:22.754Z,3.95
2022-08-05T04:41:06.702Z,3.55
2022-08-05T04:43:34.185Z,4.45
2022-08-05T04:46:01.009Z,4.50
2022-08-05T04:48:28.395Z,4.15
2022-08-05T04:51:03.697Z,4.00
2022-08-05T04:53:38.707Z,4.20
2022-08-05T04:56:33.214Z,4.10
2022-08-05T04:58:56.660Z,4.82
2022-08-05T05:02:05.791Z,4.30
2022-08-05T05:04:09.722Z,4.38
2022-08-05T05:06:44.046Z,4.43
2022-08-05T05:09:13.346Z,5.10
2022-08-05T05:11:48.565Z,5.25
2022-08-05T05:14:19.606Z,5.00
2022-08-05T05:16:58.933Z,5.10
2022-08-05T05:19:27.372Z,4.68
2022-08-05T05:21:55.550Z,4.35
2022-08-05T05:24:22.275Z,4.43
2022-08-05T05:27:08.786Z,5.05
2022-08-05T05:29:41.111Z,5.70
2022-08-05T05:32:21.994Z,5.07
2022-08-05T05:34:48.581Z,5.72
2022-08-05T05:37:19.195Z,6.63
2022-08-05T05:39:45.786Z,7.18
2022-08-05T05:42:12.394Z,7.18
2022-08-05T05:44:43.214Z,6.53
2022-08-05T05:47:21.399Z,7.05
2022-08-05T05:49:56.716Z,7.15
2022-08-05T05:52:31.352Z,6.50
2022-08-05T05:55:07.461Z,6.78
2022-08-05T05:57:42.894Z,7.10
2022-08-05T06:00:20.668Z,6.55
2022-08-05T06:02:54.161Z,6.03
2022-08-05T06:05:21.403Z,7.38
2022-08-05T06:08:01.455Z,5.72
2022-08-05T06:10:29.374Z,5.97
2022-08-05T06:13:02.987Z,6.47
2022-08-05T06:16:30.015Z,6.63
2022-08-05T06:18:16.194Z,7.00
2022-08-05T06:20:47.703Z,6.10
2022-08-05T06:23:14.613Z,7.90
2022-08-05T06:26:12.269Z,6.57
2022-08-05T06:28:28.741Z,7.07
2022-08-05T06:30:55.716Z,6.25
2022-08-05T06:33:52.251Z,6.05
2022-08-05T06:36:10.052Z,5.72
2022-08-05T06:38:37.201Z,5.68
2022-08-05T06:41:05.456Z,6.47
2022-08-05T06:43:59.441Z,6.28
2022-08-05T06:46:21.299Z,6.32
2022-08-05T06:48:56.382Z,5.70
2022-08-05T06:51:30.263Z,6.35
2022-08-05T06:54:02.598Z,5.43
2022-08-05T06:56:30.111Z,5.97
2022-08-05T06:59:00.019Z,6.07
2022-08-05T07:01:27.614Z,6.32
2022-08-05T07:04:01.453Z,5.90
2022-08-05T07:06:29.341Z,5.88
2022-08-05T07:08:56.026Z,6.03
2022-08-05T07:11:25.761Z,5.30
2022-08-05T07:14:15.352Z,5.75
2022-08-05T07:18:02.423Z,4.82
2022-08-05T07:22:28.504Z,4.75
2022-08-05T07:25:23.148Z,5.13
2022-08-05T07:27:58.180Z,4.13
2022-08-05T07:30:39.703Z,4.78
2022-08-05T07:33:10.649Z,4.25
2022-08-05T07:36:01.625Z,4.13
2022-08-05T07:38:33.210Z,4.75
2022-08-05T07:42:06.863Z,4.75
2022-08-05T07:43:52.369Z,4.38
2022-08-05T07:46:24.855Z,4.68
2022-08-05T07:49:02.099Z,4.80
2022-08-05T07:51:41.157Z,5.30
2022-08-05T07:54:19.019Z,4.75
2022-08-05T07:57:13.242Z,4.93
2022-08-05T07:59:39.941Z,4.18
2022-08-05T08:02:16.470Z,4.72
2022-08-05T08:04:48.960Z,4.50
2022-08-05T08:07:22.388Z,4.00
2022-08-05T08:09:52.056Z,3.65
2022-08-05T08:12:37.518Z,3.70
2022-08-05T08:15:09.384Z,3.92
2022-08-05T08:17:40.762Z,4.20
2022-08-05T08:20:43.194Z,4.05
2022-08-05T08:23:03.101Z,3.92
2022-08-05T08:25:36.021Z,3.80
2022-08-05T08:28:18.447Z,4.13
2022-08-05T08:31:02.524Z,3.58
2022-08-05T08:33:37.662Z,3.95
2022-08-05T08:36:40.183Z,3.88
2022-08-05T08:38:53.293Z,3.58
2022-08-05T08:41:21.439Z,4.30
2022-08-05T08:45:18.981Z,4.60
2022-08-05T08:46:43.930Z,3.97
2022-08-05T08:50:05.937Z,4.00
2022-08-05T08:52:13.931Z,4.20
2022-08-05T08:54:43.064Z,4.90
2022-08-05T08:57:13.362Z,4.30
2022-08-05T08:59:41.879Z,3.65
2022-08-05T09:02:14.635Z,4.78
2022-08-05T09:04:58.543Z,4.10
2022-08-05T09:10:19.882Z,4.20
2022-08-05T09:12:51.001Z,4.90
2022-08-05T09:15:20.265Z,4.47
2022-08-05T09:17:49.752Z,3.92
2022-08-05T09:20:21.067Z,4.28
2022-08-05T09:23:07.729Z,4.00
2022-08-05T09:26:00.281Z,4.30
2022-08-05T09:28:24.529Z,3.95
2022-08-05T09:31:23.266Z,4.05
2022-08-05T09:34:01.080Z,6.18
2022-08-05T09:36:55.716Z,4.10
2022-08-05T09:39:41.268Z,4.30
2022-08-05T09:42:23.246Z,4.15
2022-08-05T09:44:56.512Z,4.13
2022-08-05T09:47:26.181Z,4.32
2022-08-05T09:50:01.728Z,4.10
2022-08-05T09:52:36.391Z,4.72
2022-08-05T09:55:57.169Z,4.20
2022-08-05T09:58:00.029Z,3.93
2022-08-05T10:00:27.670Z,4.22
2022-08-05T10:02:58.083Z,4.32
2022-08-05T10:05:32.696Z,4.00
2022-08-05T10:08:34.631Z,4.22
2022-08-05T10:10:53.943Z,4.20
2022-08-05T10:13:43.985Z,4.05
2022-08-05T10:16:41.553Z,4.30
2022-08-05T10:19:10.054Z,4.88
2022-08-05T10:21:40.826Z,4.50
2022-08-05T10:24:13.698Z,4.20
2022-08-05T10:26:49.177Z,4.50
2022-08-05T10:29:23.646Z,4.57
2022-08-05T10:32:52.878Z,4.05
2022-08-05T10:34:57.604Z,4.50
2022-08-05T10:37:37.141Z,5.03
2022-08-05T10:40:17.786Z,4.72
2022-08-05T10:42:50.747Z,4.70
2022-08-05T10:45:30.624Z,4.07
2022-08-05T10:48:39.639Z,4.15
2022-08-05T10:51:28.428Z,4.35
2022-08-05T10:54:01.559Z,5.13
2022-08-05T10:56:45.364Z,4.68
2022-08-05T11:00:02.606Z,4.20
2022-08-05T11:02:34.572Z,4.28
2022-08-05T11:05:05.419Z,4.40
2022-08-05T11:07:32.945Z,4.20
2022-08-05T11:10:27.562Z,4.47
2022-08-05T11:12:57.436Z,4.20
2022-08-05T11:15:59.147Z,4.20
2022-08-05T11:18:34.160Z,4.50
2022-08-05T11:21:02.898Z,4.53
2022-08-05T11:24:05.191Z,4.93
2022-08-05T11:26:40.480Z,5.35
2022-08-05T11:29:42.707Z,4.70
2022-08-05T11:32:27.505Z,4.43
2022-08-05T11:34:55.319Z,4.53
2022-08-05T11:38:26.148Z,4.80
2022-08-05T11:41:34.206Z,4.07
2022-08-05T11:44:06.062Z,4.35
2022-08-05T11:46:36.073Z,4.25
2022-08-05T11:49:06.234Z,4.60
2022-08-05T11:51:44.256Z,4.18
2022-08-05T11:54:38.348Z,4.10
2022-08-05T11:57:25.516Z,4.43
2022-08-05T11:59:52.861Z,4.03
2022-08-05T12:02:29.781Z,4.63
2022-08-05T12:05:00.538Z,4.10
2022-08-05T12:10:22.763Z,4.20
2022-08-05T12:12:59.942Z,4.32
2022-08-05T12:15:35.792Z,3.67
2022-08-05T12:18:11.051Z,3.85
2022-08-05T12:20:39.419Z,4.32
2022-08-05T12:23:11.314Z,3.95
2022-08-05T12:25:58.332Z,3.65
2022-08-05T12:28:36.805Z,4.30
2022-08-05T12:31:04.020Z,3.72
2022-08-05T12:33:37.048Z,4.03
2022-08-05T12:36:09.641Z,3.60
2022-08-05T12:38:41.200Z,4.43
2022-08-05T12:41:16.421Z,4.13
2022-08-05T12:43:50.233Z,4.43
2022-08-05T12:46:28.840Z,4.10
2022-08-05T12:49:13.656Z,4.10
2022-08-05T12:52:14.355Z,4.60
2022-08-05T12:54:37.274Z,4.60
2022-08-05T12:57:09.651Z,4.22
2022-08-05T13:01:58.267Z,4.47
2022-08-05T13:02:42.581Z,4.22
2022-08-05T13:05:14.778Z,4.88
2022-08-05T13:07:59.472Z,4.13
2022-08-05T13:10:27.063Z,3.67
2022-08-05T13:15:42.203Z,4.43
2022-08-05T13:18:20.040Z,4.40
2022-08-05T13:20:47.648Z,4.15
2022-08-05T13:23:22.125Z,4.15
2022-08-05T13:25:52.206Z,4.18
2022-08-05T13:28:27.128Z,4.47
2022-08-05T13:30:53.801Z,5.00
2022-08-05T13:34:21.912Z,4.57
2022-08-05T13:36:09.279Z,4.88
2022-08-05T13:38:41.923Z,4.47
2022-08-05T13:41:09.725Z,4.20
2022-08-05T13:43:43.378Z,4.13
2022-08-05T13:46:11.698Z,4.60
2022-08-05T13:48:58.613Z,4.40
2022-08-05T13:51:29.356Z,4.63
2022-08-05T13:54:03.509Z,4.70
2022-08-05T13:56:51.214Z,4.35
2022-08-05T13:59:24.957Z,4.88
2022-08-05T14:01:59.096Z,5.45
2022-08-05T14:04:56.188Z,4.32
2022-08-05T14:07:59.617Z,4.95
2022-08-05T14:10:28.661Z,3.90
2022-08-05T14:12:57.185Z,4.45
2022-08-05T14:16:07.499Z,4.05
2022-08-05T14:18:15.231Z,4.07
2022-08-05T14:20:47.153Z,4.78
2022-08-05T14:23:24.638Z,4.47
2022-08-05T14:30:54.570Z,4.20
2022-08-05T14:33:22.580Z,4.43
2022-08-05T14:35:52.105Z,3.83
2022-08-05T14:38:31.905Z,4.28
2022-08-05T14:41:01.645Z,4.47
2022-08-05T14:44:01.881Z,5.10
2022-08-05T14:46:18.956Z,4.93
2022-08-05T14:48:49.150Z,4.40
2022-08-05T14:51:17.539Z,4.60
2022-08-05T14:53:44.975Z,4.40
2022-08-05T14:56:12.113Z,4.88
2022-08-05T14:58:47.512Z,4.57
2022-08-05T15:01:47.171Z,4.20
2022-08-05T15:04:11.455Z,4.43
2022-08-05T15:06:38.920Z,4.25
2022-08-05T15:09:07.468Z,5.10
2022-08-05T15:11:52.387Z,3.97
2022-08-05T15:14:42.221Z,4.47
2022-08-05T15:17:44.597Z,4.63
2022-08-05T15:20:04.126Z,4.55
2022-08-05T15:22:30.663Z,4.63
2022-08-05T15:24:59.170Z,4.63
2022-08-05T15:27:26.518Z,4.38
2022-08-05T15:29:59.231Z,4.32
2022-08-05T15:32:27.219Z,4.30
2022-08-05T15:34:55.504Z,4.20
2022-08-05T15:38:33.680Z,4.93
2022-08-05T15:40:59.836Z,4.40
2022-08-05T15:43:09.375Z,5.35
2022-08-05T15:45:45.746Z,4.47
2022-08-05T15:48:14.241Z,4.57
2022-08-05T15:53:12.536Z,5.03
2022-08-05T15:56:02.986Z,6.88
2022-08-05T15:58:26.699Z,5.53
2022-08-05T16:01:04.347Z,5.63
2022-08-05T16:03:40.982Z,4.80
2022-08-05T16:06:09.262Z,5.10
2022-08-05T16:08:38.166Z,4.68
2022-08-05T16:11:05.076Z,4.53
2022-08-05T16:13:34.140Z,4.38
2022-08-05T16:16:02.038Z,4.95
2022-08-05T16:18:30.226Z,4.93
2022-08-05T16:20:57.555Z,4.15
2022-08-05T16:23:24.285Z,4.00
2022-08-05T16:25:55.787Z,4.15
2022-08-05T16:28:24.251Z,4.70
2022-08-05T16:30:52.139Z,4.50
2022-08-05T16:35:49.898Z,4.65
2022-08-05T16:38:25.365Z,4.70
2022-08-05T16:41:00.852Z,5.35
2022-08-05T16:43:33.575Z,4.70
2022-08-05T16:46:13.096Z,5.05
2022-08-05T16:48:50.418Z,4.70
2022-08-05T16:51:17.547Z,5.03
2022-08-05T16:54:05.241Z,5.07
2022-08-05T16:56:33.823Z,4.60
2022-08-05T16:59:08.312Z,4.07
2022-08-05T17:01:53.957Z,5.35
2022-08-05T17:04:23.731Z,5.47
2022-08-05T17:06:53.717Z,6.03
2022-08-05T17:09:20.583Z,5.47
2022-08-05T17:11:48.792Z,5.28
2022-08-05T17:14:34.172Z,5.15
2022-08-05T17:17:04.017Z,5.25
2022-08-05T17:19:31.391Z,4.82
2022-08-05T17:21:58.535Z,5.05
2022-08-05T17:24:35.172Z,5.38
2022-08-05T17:27:08.993Z,5.07
2022-08-05T17:29:40.785Z,5.15
2022-08-05T17:32:17.396Z,5.60
2022-08-05T17:34:47.707Z,5.30
2022-08-05T17:37:41.051Z,4.80
2022-08-05T17:40:10.242Z,5.13
2022-08-05T17:42:39.951Z,5.45
2022-08-05T17:45:20.363Z,5.53
2022-08-05T17:47:52.900Z,5.03
2022-08-05T17:50:28.749Z,4.68
2022-08-05T17:53:01.619Z,5.32
2022-08-05T17:55:37.416Z,5.80
2022-08-05T17:58:12.487Z,4.78
2022-08-05T18:00:44.383Z,5.55
2022-08-05T18:03:28.009Z,5.22
2022-08-05T18:06:04.563Z,5.80
2022-08-05T18:08:33.512Z,5.50
2022-08-05T18:11:01.042Z,5.00
2022-08-05T18:13:36.758Z,5.75
2022-08-05T18:16:13.321Z,5.78
2022-08-05T18:18:41.630Z,5.15
2022-08-05T18:21:19.651Z,5.07
2022-08-05T18:23:48.055Z,5.45
2022-08-05T18:26:14.815Z,5.38
2022-08-05T18:28:46.583Z,5.00
2022-08-05T18:31:15.930Z,5.22
2022-08-05T18:33:47.085Z,5.40
2022-08-05T18:36:15.452Z,5.20
2022-08-05T18:38:42.756Z,5.53
2022-08-05T18:41:55.541Z,5.20
2022-08-05T18:43:56.071Z,5.43
2022-08-05T18:46:22.786Z,4.90
2022-08-05T18:48:53.585Z,5.80
2022-08-05T18:52:06.402Z,5.35
2022-08-05T18:54:31.260Z,5.10
2022-08-05T18:57:00.963Z,5.43
2022-08-05T18:59:43.323Z,5.95
2022-08-05T19:02:26.640Z,5.97
2022-08-05T19:06:05.320Z,5.88
2022-08-05T19:07:53.090Z,5.85
2022-08-05T19:10:26.550Z,5.47
2022-08-05T19:12:54.944Z,5.82
2022-08-05T19:15:57.512Z,4.93
2022-08-05T19:18:13.655Z,5.03
2022-08-05T19:20:51.583Z,5.93
2022-08-05T19:24:03.523Z,5.60
2022-08-05T19:26:05.524Z,5.18
2022-08-05T19:28:41.530Z,5.82
2022-08-05T19:31:09.034Z,5.75
2022-08-05T19:33:40.722Z,6.55
2022-08-05T19:36:16.950Z,6.45
2022-08-05T19:38:45.170Z,6.43
2022-08-05T19:41:11.738Z,5.72
2022-08-05T19:44:05.402Z,5.68
2022-08-05T19:46:30.160Z,5.55
2022-08-05T19:49:03.199Z,7.05
2022-08-05T19:52:05.040Z,6.07
2022-08-05T19:54:27.226Z,6.82
2022-08-05T19:57:06.488Z,5.80
2022-08-05T19:59:55.577Z,8.57
2022-08-05T20:02:22.867Z,6.22
2022-08-05T20:04:49.935Z,6.43
2022-08-05T20:07:47.437Z,6.63
2022-08-05T20:10:13.483Z,5.90
2022-08-05T20:12:48.206Z,6.43
2022-08-05T20:15:47.885Z,6.88
2022-08-05T20:18:10.384Z,6.22
2022-08-05T20:20:56.004Z,5.82
2022-08-05T20:23:39.270Z,6.45
2022-08-05T20:26:16.213Z,6.53
2022-08-05T20:28:44.241Z,6.75
2022-08-05T20:31:11.262Z,6.97
2022-08-05T20:33:37.849Z,5.85
2022-08-05T20:36:09.019Z,6.22
2022-08-05T20:38:37.663Z,6.97
2022-08-05T20:41:08.449Z,6.53
2022-08-05T20:43:59.683Z,6.57
2022-08-05T20:46:25.177Z,6.80
2022-08-05T20:48:52.262Z,6.47
2022-08-05T20:51:18.914Z,5.75
2022-08-05T20:53:55.234Z,6.38
2022-08-05T20:56:28.168Z,6.38
2022-08-05T20:58:56.663Z,6.88
2022-08-05T21:01:38.172Z,6.10
2022-08-05T21:04:07.322Z,6.50
2022-08-05T21:06:38.397Z,7.30
2022-08-05T21:09:14.271Z,5.82
2022-08-05T21:14:28.661Z,7.10
2022-08-05T21:17:01.249Z,6.88
2022-08-05T21:19:29.654Z,6.72
2022-08-05T21:22:14.540Z,6.72
2022-08-05T21:24:41.058Z,7.18
2022-08-05T21:27:09.288Z,6.90
2022-08-05T21:29:40.690Z,6.95
2022-08-05T21:32:07.771Z,6.60
2022-08-05T21:34:35.478Z,6.78
2022-08-05T21:37:02.494Z,6.70
2022-08-05T21:39:29.497Z,6.80
2022-08-05T21:42:01.018Z,6.80
2022-08-05T21:44:28.515Z,7.20
2022-08-05T21:46:55.748Z,7.97
2022-08-05T21:49:56.570Z,6.85
2022-08-05T21:52:27.828Z,7.43
2022-08-05T21:54:56.090Z,6.72
2022-08-05T21:57:31.559Z,7.13
2022-08-05T22:00:06.346Z,7.10
2022-08-05T22:02:33.798Z,6.13
2022-08-05T22:05:00.408Z,7.63
2022-08-05T22:07:39.717Z,7.20
2022-08-05T22:10:16.605Z,6.45
2022-08-05T22:12:44.770Z,7.00
2022-08-05T22:16:00.342Z,7.07
2022-08-05T22:18:04.229Z,7.15
2022-08-05T22:20:30.843Z,7.95
2022-08-05T22:23:21.494Z,6.32
2022-08-05T22:26:10.102Z,6.68
2022-08-05T22:28:38.780Z,7.10
2022-08-05T22:31:06.277Z,7.63
2022-08-05T22:33:55.543Z,7.25
2022-08-05T22:36:19.735Z,6.38
2022-08-05T22:38:50.769Z,6.57
2022-08-05T22:42:04.847Z,6.95
2022-08-05T22:44:07.180Z,6.97
2022-08-05T22:46:33.998Z,6.90
2022-08-05T22:49:12.143Z,7.72
2022-08-05T22:52:06.136Z,7.65
2022-08-05T22:54:36.746Z,6.20
2022-08-05T22:57:06.886Z,6.90
2022-08-05T22:59:45.161Z,7.53
2022-08-05T23:04:51.243Z,6.47
2022-08-05T23:07:18.994Z,6.88
2022-08-05T23:09:58.310Z,6.10
2022-08-05T23:12:32.732Z,7.30
2022-08-05T23:15:03.938Z,6.80
2022-08-05T23:17:37.884Z,7.80
2022-08-05T23:20:23.549Z,7.00
2022-08-05T23:22:52.785Z,6.72
2022-08-05T23:25:54.773Z,7.03
2022-08-05T23:28:10.822Z,7.28
2022-08-05T23:30:40.428Z,7.72
2022-08-05T23:33:21.961Z,7.30
2022-08-05T23:35:55.907Z,7.25
2022-08-05T23:38:24.219Z,7.18
2022-08-05T23:40:52.688Z,7.47
2022-08-05T23:43:24.811Z,7.45
2022-08-05T23:46:03.361Z,7.35
2022-08-05T23:48:29.968Z,7.65
2022-08-05T23:50:56.526Z,7.25
2022-08-05T23:53:40.662Z,7.10
2022-08-05T23:56:11.975Z,7.05
2022-08-05T23:58:38.828Z,7.65
